AirNav   Air Wisconsin Up To $57,000 Bonus
 
 1145 users online  

6GA5 Kolibri Airport
Whitesburg, Georgia, USA

GOING TO WHITESBURG?


FAA INFORMATION EFFECTIVE 25 FEBRUARY 2021

Location

FAA Identifier: 6GA5
Lat/Long: 33-34-41.3990N 084-54-24.7830W
33-34.689983N 084-54.413050W
33.5781664,-84.9068842
(estimated)
Elevation: 1100 ft. / 335 m (estimated)
Variation: 01W (1985)
From city: 6 miles N of WHITESBURG, GA
Time zone: UTC -5 (UTC -4 during Daylight Saving Time)
Zip code: 30116

Airport Operations

Airport use: Private use. Permission required prior to landing
Activation date: 11/1990
Control tower: no
ARTCC: ATLANTA CENTER
FSS: MACON FLIGHT SERVICE STATION
Attendance: IREG
Segmented circle: no

Airport Communications

WX AWOS-3 at CTJ (13 nm W): 118.175 (770-214-9667)
WX AWOS-3PT at CCO (17 nm SE): 118.975 (770-254-1617)

Nearby radio navigation aids

VOR radial/distance  VOR name  Freq  Var
ATLr268/23.8ATLANTA VORTAC116.9005W
LGCr024/35.1LAGRANGE VORTAC115.6001E
PDKr245/35.2PEACHTREE VOR/DME116.6005W
RMGr162/36.6ROME VORTAC115.4001E

 
NDB name  Hdg/Dist  Freq  Var  ID
CARROLLTON090/11.227804WGPQ --. .--. --.-
COWETA COUNTY336/21.623403WEQQ . --.- --.-
PECAT313/26.831605WFFC ..-. ..-. -.-.

Airport Services

Runway Information

Runway 1/19

Dimensions: 2000 x 100 ft. / 610 x 30 m
Surface: turf
RUNWAY 1  RUNWAY 19
Traffic pattern: leftleft

Airport Ownership and Management from official FAA records

Ownership: Privately-owned
Owner: PAUL SCHMIDT
745 CONSOLATION-ERLEN RD
WHITESBURG, GA 30185
Phone 770-834-6132
Manager: PAUL SCHMIDT
745 CONSOLATION-ERLEN RD
WHITESBURG, GA 30185
Phone 770-834-6132

Airport Operational Statistics

Aircraft based on the field: 1
Single engine airplanes: 1
    

Additional Remarks

FOR CD CTC ATLANTA APCH AT 678-364-6131.

Instrument Procedures

There are no published instrument procedures at 6GA5.

Some nearby airports with instrument procedures:

KCTJ - West Georgia Regional Airport-O V Gray Field (13 nm W)
KCCO - Newnan Coweta County Airport (17 nm SE)
KPUJ - Paulding Northwest Atlanta Airport (20 nm N)
KFFC - Atlanta Regional Airport-Falcon Field (21 nm SE)
KFTY - Fulton County Exec/Charlie Brown Field Airport (23 nm NE)
 
Loc | Ops | Rwys | IFR | FBO | Links
Com | Nav | Svcs | Stats | Notes
Area around 6GA5 (Kolibri Airport)
 
Road maps at: MapQuest Bing Google
 
Aerial photo
No photo
 
Sectional chart

 
Airport distance calculator
Flying to Kolibri Airport? Find the distance to fly.

From to 6GA5

Sunrise and sunset
Times for 01-Mar-2021
 Local
(UTC-5)
 Zulu
(UTC)
Morning civil twilight06:4411:44
Sunrise07:0912:09
Sunset18:3523:35
Evening civil twilight19:0000:00

Current date and time
Zulu (UTC)  01-Mar-2021 14:30:08
Local (UTC-5)  01-Mar-2021 09:30:08
 
METAR
KCTJ 
13nm W 
011410Z AUTO 00000KT 10SM OVC060 13/12 A3012 RMK AO2 T01300121
KCCO 
17nm SE 
011415Z AUTO 35004KT 7SM DZ OVC050 16/12 A3010 RMK AO2 T01560123
KPUJ 
20nm N 
011415Z AUTO 00000KT 10SM OVC070 13/13 A3008 RMK AO2
KFFC 
22nm SE 
011353Z AUTO 30005KT 5SM -RA BR OVC050 14/14 A3010 RMK AO2 SLP190 P0001 T01440139
KFTY 
23nm NE 
011353Z 26003KT 10SM SCT060 OVC075 14/13 A3007 RMK AO2 RAE49 SLP177 P0000 T01440128
KATL 
23nm E 
011352Z 30008KT 8SM -RA FEW008 BKN060 OVC075 14/13 A3007 RMK AO2 RAE20B47 SLP179 P0001 T01440128
TAF
KFTY 
23nm NE 
010539Z 0106/0206 21008KT P6SM BKN120 FM010700 22009KT P6SM BKN025 FM010900 22009KT P6SM OVC015 FM011200 26010KT P6SM -SHRA OVC020 FM011600 31009KT P6SM VCSH OVC035 FM020000 33008KT P6SM SCT040 BKN250
KATL 
23nm E 
010539Z 0106/0212 21009KT P6SM SCT060 BKN120 FM010700 22010KT P6SM BKN025 FM010900 22011KT P6SM OVC012 FM011200 26011G19KT P6SM VCSH OVC020 TEMPO 0112/0116 4SM -SHRA BR FM011600 31009KT P6SM VCSH OVC035 FM020200 34008KT P6SM SCT050 BKN250
KMGE 
28nm NE 
282200Z 2822/0204 20015G25KT 9999 BKN050 BKN090 BKN250 QNH3000INS BECMG 0100/0101 21012KT 9999 SCT090 BKN250 QNH2995INS BECMG 0105/0106 22012KT 9999 BKN015 OVC040 QNH2990INS BECMG 0109/0110 27009KT 3200 -SHRA BR OVC007 QNH2992INS BECMG 0117/0118 30010G15KT 9000 -SHRA BKN015 OVC070 QNH3007INS BECMG 0121/0122 30012KT 9999 VCSH BKN030 QNH3012INS BECMG 0202/0203 32009KT 9999 NSW SCT090 QNH3019INS TX25/2822Z TN13/0112Z
NOTAMs
Click for the latest NOTAMs
NOTAMs are issued by the DoD/FAA and will open in a separate window not controlled by AirNav.

 

 
 

Would you like to see your business listed on this page?

 If your business provides an interesting product or service to pilots, flight crews, aircraft, or users of the Kolibri Airport, you should consider listing it here.  To start the listing process, click on the button below
 
Add a business
 

Other Pages about Kolibri Airport

Update a link
 
Copyright © AirNav, LLC. All rights reserved. Privacy Policy  Contact